createdAt,value
2022-11-23T00:00:12.986Z,5.87
2022-11-23T00:02:41.530Z,5.98
2022-11-23T00:05:10.795Z,5.94
2022-11-23T00:07:39.504Z,5.94
2022-11-23T00:10:10.272Z,5.99
2022-11-23T00:12:38.693Z,6.02
2022-11-23T00:15:10.362Z,5.96
2022-11-23T00:17:38.910Z,6.01
2022-11-23T00:20:10.174Z,5.96
2022-11-23T00:22:38.690Z,5.89
2022-11-23T00:25:07.689Z,5.80
2022-11-23T00:27:37.662Z,5.71
2022-11-23T00:30:07.454Z,5.65
2022-11-23T00:32:35.819Z,5.67
2022-11-23T00:35:04.706Z,5.61
2022-11-23T00:37:33.498Z,5.62
2022-11-23T00:40:02.453Z,5.66
2022-11-23T00:42:36.564Z,5.71
2022-11-23T00:45:09.743Z,5.78
2022-11-23T00:47:41.297Z,5.81
2022-11-23T00:50:11.354Z,5.82
2022-11-23T00:52:39.643Z,5.86
2022-11-23T00:55:08.999Z,5.88
2022-11-23T00:57:39.257Z,5.87
2022-11-23T01:00:12.640Z,5.95
2022-11-23T01:02:41.862Z,6.05
2022-11-23T01:05:11.072Z,6.06
2022-11-23T01:07:40.006Z,6.05
2022-11-23T01:10:09.682Z,6.09
2022-11-23T01:12:38.403Z,6.07
2022-11-23T01:15:12.397Z,6.16
2022-11-23T01:17:40.534Z,6.10
2022-11-23T01:20:12.709Z,6.06
2022-11-23T01:22:44.477Z,6.06
2022-11-23T01:25:13.525Z,6.04
2022-11-23T01:27:44.330Z,6.08
2022-11-23T01:30:16.627Z,6.13
2022-11-23T01:32:45.395Z,6.12
2022-11-23T01:35:13.553Z,6.11
2022-11-23T01:37:41.809Z,6.08
2022-11-23T01:40:11.612Z,6.11
2022-11-23T01:42:50.596Z,6.08
2022-11-23T01:45:38.714Z,6.22
2022-11-23T01:48:12.850Z,6.16
2022-11-23T01:50:42.517Z,6.13
2022-11-23T01:53:12.773Z,6.17
2022-11-23T01:55:42.747Z,6.22
2022-11-23T01:58:15.599Z,6.17
2022-11-23T02:00:47.455Z,6.12
2022-11-23T02:03:20.013Z,6.12
2022-11-23T02:05:54.311Z,6.10
2022-11-23T02:08:24.110Z,6.11
2022-11-23T02:10:56.120Z,6.22
2022-11-23T02:13:29.904Z,6.17
2022-11-23T02:16:04.235Z,6.12
2022-11-23T02:18:35.369Z,6.13
2022-11-23T02:21:09.050Z,6.15
2022-11-23T02:23:46.453Z,6.15
2022-11-23T02:26:21.062Z,6.18
2022-11-23T02:28:56.636Z,6.21
2022-11-23T02:31:25.389Z,6.19
2022-11-23T02:33:57.276Z,6.20
2022-11-23T02:36:36.872Z,6.25
2022-11-23T02:39:13.068Z,6.19
2022-11-23T02:41:46.916Z,6.18
2022-11-23T02:44:35.234Z,6.15
2022-11-23T02:47:04.526Z,6.16
2022-11-23T02:49:34.283Z,6.15
2022-11-23T02:52:03.597Z,6.13
2022-11-23T02:54:34.339Z,6.23
2022-11-23T02:57:03.936Z,6.18
2022-11-23T02:59:34.221Z,6.19
2022-11-23T03:02:07.193Z,6.21
2022-11-23T03:04:37.204Z,6.16
2022-11-23T03:07:05.736Z,6.21
2022-11-23T03:09:36.175Z,6.16
2022-11-23T03:12:10.496Z,6.17
2022-11-23T03:14:41.582Z,6.19
2022-11-23T03:17:12.603Z,6.30
2022-11-23T03:19:43.552Z,6.23
2022-11-23T03:22:13.605Z,6.21
2022-11-23T03:24:43.428Z,6.21
2022-11-23T03:27:19.132Z,6.24
2022-11-23T03:29:48.386Z,6.21
2022-11-23T03:32:20.972Z,6.19
2022-11-23T03:34:52.452Z,6.19
2022-11-23T03:37:24.207Z,6.20
2022-11-23T03:39:53.507Z,6.19
2022-11-23T03:42:43.767Z,6.20
2022-11-23T03:45:13.632Z,6.28
2022-11-23T03:47:43.182Z,6.21
2022-11-23T03:50:13.457Z,6.30
2022-11-23T03:52:42.283Z,6.33
2022-11-23T03:55:13.630Z,6.34
2022-11-23T03:57:43.439Z,6.28
2022-11-23T04:00:13.847Z,6.23
2022-11-23T04:02:44.306Z,6.23
2022-11-23T04:05:32.585Z,6.25
2022-11-23T04:08:22.680Z,6.25
2022-11-23T04:10:52.079Z,6.22
2022-11-23T04:13:26.060Z,6.25
2022-11-23T04:15:54.232Z,6.24
2022-11-23T04:18:22.584Z,6.28
2022-11-23T04:20:51.315Z,6.24
2022-11-23T04:23:20.753Z,6.32
2022-11-23T04:25:50.897Z,6.30
2022-11-23T04:28:20.758Z,6.30
2022-11-23T04:30:53.335Z,6.31
2022-11-23T04:33:24.516Z,6.36
2022-11-23T04:35:53.225Z,6.35
2022-11-23T04:38:22.539Z,6.28
2022-11-23T04:40:53.312Z,6.40
2022-11-23T04:43:24.157Z,6.35
2022-11-23T04:45:53.774Z,6.29
2022-11-23T04:48:28.741Z,6.32
2022-11-23T04:51:01.456Z,6.32
2022-11-23T04:53:36.422Z,6.37
2022-11-23T04:56:06.489Z,6.43
2022-11-23T04:58:40.143Z,6.31
2022-11-23T05:01:09.836Z,6.31
2022-11-23T05:03:52.979Z,6.29
2022-11-23T05:06:23.151Z,6.32
2022-11-23T05:08:52.223Z,6.33
2022-11-23T05:11:38.345Z,6.28
2022-11-23T05:14:10.237Z,6.32
2022-11-23T05:16:43.605Z,6.32
2022-11-23T05:19:11.838Z,6.31
2022-11-23T05:21:40.536Z,6.30
2022-11-23T05:24:09.056Z,6.24
2022-11-23T05:26:41.788Z,6.27
2022-11-23T05:29:13.141Z,6.22
2022-11-23T05:31:43.462Z,6.24
2022-11-23T05:34:22.153Z,6.24
2022-11-23T05:36:54.133Z,6.24
2022-11-23T05:39:22.934Z,6.22
2022-11-23T05:41:57.679Z,6.23
2022-11-23T05:44:34.541Z,6.20
2022-11-23T05:47:04.695Z,6.30
2022-11-23T05:49:35.456Z,6.25
2022-11-23T05:52:08.383Z,6.27
2022-11-23T05:54:41.760Z,6.24
2022-11-23T05:57:17.854Z,6.25
2022-11-23T05:59:47.267Z,6.23
2022-11-23T06:02:22.269Z,6.26
2022-11-23T06:04:56.594Z,6.27
2022-11-23T06:07:37.040Z,6.25
2022-11-23T06:10:14.200Z,6.22
2022-11-23T06:12:49.981Z,6.24
2022-11-23T06:15:20.187Z,6.25
2022-11-23T06:17:50.868Z,6.23
2022-11-23T06:20:24.385Z,6.18
2022-11-23T06:23:00.265Z,6.15
2022-11-23T06:25:30.203Z,6.16
2022-11-23T06:28:19.199Z,6.14
2022-11-23T06:30:49.968Z,6.18
2022-11-23T06:33:21.198Z,6.17
2022-11-23T06:35:56.552Z,6.30
2022-11-23T06:38:29.007Z,6.21
2022-11-23T06:41:06.597Z,6.26
2022-11-23T06:43:35.929Z,6.21
2022-11-23T06:46:07.576Z,6.19
2022-11-23T06:48:45.628Z,6.18
2022-11-23T06:51:16.581Z,6.23
2022-11-23T06:53:46.427Z,6.18
2022-11-23T06:56:18.619Z,6.14
2022-11-23T06:58:47.937Z,6.14
2022-11-23T07:01:21.972Z,6.11
2022-11-23T07:04:03.062Z,6.12
2022-11-23T07:06:42.320Z,6.11
2022-11-23T07:09:24.520Z,6.15
2022-11-23T07:12:03.149Z,6.16
2022-11-23T07:14:34.117Z,6.18
2022-11-23T07:17:03.492Z,6.16
2022-11-23T07:19:33.385Z,6.28
2022-11-23T07:22:02.121Z,6.31
2022-11-23T07:24:37.978Z,6.32
2022-11-23T07:27:10.373Z,6.37
2022-11-23T07:29:38.511Z,6.42
2022-11-23T07:32:08.505Z,6.47
2022-11-23T07:34:39.504Z,6.53
2022-11-23T07:37:12.604Z,6.64
2022-11-23T07:39:56.916Z,6.72
2022-11-23T07:42:39.793Z,6.75
2022-11-23T07:45:12.695Z,6.77
2022-11-23T07:47:46.250Z,6.78
2022-11-23T07:50:18.966Z,6.81
2022-11-23T07:52:49.936Z,6.89
2022-11-23T07:55:18.782Z,6.92
2022-11-23T07:57:47.110Z,7.03
2022-11-23T08:00:18.473Z,6.95
2022-11-23T08:03:11.406Z,6.83
2022-11-23T08:05:43.917Z,6.83
2022-11-23T08:08:12.891Z,6.79
2022-11-23T08:10:47.167Z,6.71
2022-11-23T08:13:19.051Z,6.70
2022-11-23T08:15:53.362Z,6.73
2022-11-23T08:18:22.955Z,6.78
2022-11-23T08:20:53.283Z,6.77
2022-11-23T08:23:22.449Z,6.89
2022-11-23T08:25:51.080Z,6.85
2022-11-23T08:28:19.454Z,6.79
2022-11-23T08:30:48.658Z,6.81
2022-11-23T08:33:18.662Z,6.84
2022-11-23T08:35:46.831Z,6.78
2022-11-23T08:38:16.553Z,6.77
2022-11-23T08:40:45.319Z,6.80
2022-11-23T08:43:13.427Z,6.87
2022-11-23T08:45:41.975Z,6.94
2022-11-23T08:48:10.873Z,6.95
2022-11-23T08:50:39.415Z,7.08
2022-11-23T08:53:10.462Z,7.00
2022-11-23T08:55:40.565Z,7.04
2022-11-23T08:58:13.410Z,7.06
2022-11-23T09:00:42.012Z,7.17
2022-11-23T09:03:11.955Z,7.30
2022-11-23T09:05:41.125Z,7.32
2022-11-23T09:08:09.789Z,7.27
2022-11-23T09:10:40.012Z,7.28
2022-11-23T09:13:08.774Z,7.32
2022-11-23T09:15:39.905Z,7.39
2022-11-23T09:18:11.500Z,7.38
2022-11-23T09:20:41.507Z,7.43
2022-11-23T09:23:14.404Z,7.52
2022-11-23T09:25:48.545Z,7.56
2022-11-23T09:28:19.762Z,7.59
2022-11-23T09:30:48.177Z,7.63
2022-11-23T09:33:16.508Z,7.68
2022-11-23T09:35:44.706Z,7.65
2022-11-23T09:38:13.866Z,7.67
2022-11-23T09:40:45.685Z,7.64
2022-11-23T09:43:32.751Z,7.79
2022-11-23T09:46:12.044Z,7.78
2022-11-23T09:48:55.976Z,7.76
2022-11-23T09:51:24.443Z,7.90
2022-11-23T09:53:56.417Z,7.88
2022-11-23T09:56:30.059Z,7.96
2022-11-23T09:59:02.111Z,7.95
2022-11-23T10:01:31.680Z,7.92
2022-11-23T10:04:00.280Z,7.97
2022-11-23T10:06:31.366Z,8.02
2022-11-23T10:09:14.015Z,8.07
2022-11-23T10:12:08.485Z,8.09
2022-11-23T10:14:51.991Z,8.16
2022-11-23T10:17:30.517Z,8.16
2022-11-23T10:20:13.528Z,8.19
2022-11-23T10:22:49.173Z,8.29
2022-11-23T10:25:20.627Z,8.33
2022-11-23T10:27:55.753Z,8.30
2022-11-23T10:30:24.143Z,8.23
2022-11-23T10:33:02.651Z,8.37
2022-11-23T10:35:33.467Z,8.38
2022-11-23T10:38:18.102Z,8.48
2022-11-23T10:40:59.292Z,8.51
2022-11-23T10:43:34.125Z,8.51
2022-11-23T10:46:26.097Z,8.53
2022-11-23T10:49:00.779Z,8.66
2022-11-23T10:51:33.380Z,8.71
2022-11-23T10:54:07.007Z,8.67
2022-11-23T10:56:36.015Z,8.65
2022-11-23T10:59:28.508Z,8.66
2022-11-23T11:02:21.179Z,8.78
2022-11-23T11:04:57.338Z,8.89
2022-11-23T11:07:29.713Z,8.87
2022-11-23T11:09:59.875Z,8.78
2022-11-23T11:12:30.286Z,8.72
2022-11-23T11:15:11.411Z,8.87
2022-11-23T11:17:43.238Z,8.95
2022-11-23T11:20:31.452Z,8.92
2022-11-23T11:23:01.647Z,8.89
2022-11-23T11:25:35.845Z,8.87
2022-11-23T11:28:05.387Z,8.99
2022-11-23T11:30:46.554Z,9.01
2022-11-23T11:33:21.050Z,8.85
2022-11-23T11:35:54.584Z,8.94
2022-11-23T11:38:29.853Z,8.93
2022-11-23T11:41:03.598Z,8.97
2022-11-23T11:43:39.855Z,8.93
2022-11-23T11:46:30.913Z,8.91
2022-11-23T11:49:07.435Z,8.91
2022-11-23T11:51:40.902Z,8.91
2022-11-23T11:54:18.900Z,8.98
2022-11-23T11:56:50.846Z,9.07
2022-11-23T11:59:29.510Z,8.97
2022-11-23T12:02:10.882Z,8.90
2022-11-23T12:04:45.781Z,8.94
2022-11-23T12:07:22.916Z,8.97
2022-11-23T12:09:59.898Z,8.93
2022-11-23T12:12:35.891Z,9.04
2022-11-23T12:15:20.509Z,9.03
2022-11-23T12:18:30.811Z,9.11
2022-11-23T12:21:04.870Z,9.08
2022-11-23T12:23:50.810Z,9.13
2022-11-23T12:26:31.022Z,9.23
2022-11-23T12:29:17.549Z,9.16
2022-11-23T12:31:52.384Z,9.14
2022-11-23T12:34:42.864Z,9.11
2022-11-23T12:37:37.784Z,9.29
2022-11-23T12:40:21.158Z,9.21
2022-11-23T12:42:57.895Z,9.16
2022-11-23T12:45:56.090Z,9.18
2022-11-23T12:48:42.715Z,9.21
2022-11-23T12:51:32.352Z,9.31
2022-11-23T12:54:27.053Z,9.32
2022-11-23T12:57:07.870Z,9.26
2022-11-23T12:59:44.592Z,9.45
2022-11-23T13:02:39.768Z,9.41
2022-11-23T13:05:29.506Z,9.38
2022-11-23T13:08:09.474Z,9.24
2022-11-23T13:11:08.380Z,9.17
2022-11-23T13:14:01.426Z,9.24
2022-11-23T13:17:02.860Z,9.15
2022-11-23T13:19:59.056Z,9.14
2022-11-23T13:22:32.052Z,9.18
2022-11-23T13:25:16.354Z,9.23
2022-11-23T13:27:56.898Z,9.23
2022-11-23T13:30:51.974Z,9.23
2022-11-23T13:33:39.676Z,9.25
2022-11-23T13:36:16.859Z,9.27
2022-11-23T13:38:49.149Z,9.22
2022-11-23T13:41:55.222Z,9.25
2022-11-23T13:44:27.901Z,9.22
2022-11-23T13:47:02.865Z,9.12
2022-11-23T13:49:33.794Z,9.15
2022-11-23T13:52:08.656Z,9.26
2022-11-23T13:54:41.235Z,9.22
2022-11-23T13:57:14.449Z,9.26
2022-11-23T13:59:48.612Z,9.18
2022-11-23T14:02:34.767Z,9.18
2022-11-23T14:05:52.633Z,9.12
2022-11-23T14:08:22.310Z,9.26
2022-11-23T14:10:51.454Z,9.24
2022-11-23T14:13:25.197Z,9.16
2022-11-23T14:16:00.764Z,9.23
2022-11-23T14:19:04.000Z,9.09
2022-11-23T14:21:43.539Z,9.18
2022-11-23T14:24:33.524Z,9.04
2022-11-23T14:27:45.667Z,9.06
2022-11-23T14:30:14.866Z,8.89
2022-11-23T14:33:03.822Z,8.92
2022-11-23T14:35:38.643Z,8.91
2022-11-23T14:38:33.833Z,8.98
2022-11-23T14:41:09.731Z,8.98
2022-11-23T14:43:42.734Z,8.86
2022-11-23T14:46:17.442Z,8.73
2022-11-23T14:48:47.789Z,8.57
2022-11-23T14:51:19.798Z,8.42
2022-11-23T14:53:51.182Z,8.46
2022-11-23T14:56:32.308Z,8.37
2022-11-23T14:59:03.621Z,8.24
2022-11-23T15:01:33.123Z,8.14
2022-11-23T15:04:09.335Z,8.09
2022-11-23T15:06:45.959Z,8.05
2022-11-23T15:09:26.429Z,8.07
2022-11-23T15:12:07.443Z,8.16
2022-11-23T15:14:37.349Z,7.96
2022-11-23T15:17:16.378Z,7.89
2022-11-23T15:19:54.864Z,7.80
2022-11-23T15:22:24.528Z,7.62
2022-11-23T15:24:53.419Z,7.52
2022-11-23T15:27:28.986Z,7.47
2022-11-23T15:29:59.942Z,7.51
2022-11-23T15:32:32.649Z,7.38
2022-11-23T15:35:07.314Z,7.44
2022-11-23T15:37:42.424Z,7.30
2022-11-23T15:40:15.684Z,7.20
2022-11-23T15:42:45.881Z,7.21
2022-11-23T15:45:38.751Z,7.14
2022-11-23T15:48:12.776Z,7.01
2022-11-23T15:50:49.229Z,6.87
2022-11-23T15:53:17.868Z,6.76
2022-11-23T15:55:46.794Z,6.71
2022-11-23T15:58:17.875Z,6.89
2022-11-23T16:00:51.317Z,7.04
2022-11-23T16:03:38.084Z,7.03
2022-11-23T16:06:25.886Z,7.24
2022-11-23T16:08:57.520Z,7.30
2022-11-23T16:11:33.864Z,7.41
2022-11-23T16:14:17.712Z,7.33
2022-11-23T16:16:49.081Z,7.39
2022-11-23T16:19:47.265Z,7.71
2022-11-23T16:22:23.405Z,7.64
2022-11-23T16:24:56.147Z,7.67
2022-11-23T16:27:26.884Z,7.71
2022-11-23T16:30:02.657Z,7.74
2022-11-23T16:32:33.136Z,7.80
2022-11-23T16:35:18.244Z,7.76
2022-11-23T16:37:49.556Z,7.80
2022-11-23T16:40:18.155Z,7.78
2022-11-23T16:42:48.113Z,7.81
2022-11-23T16:45:16.364Z,7.79
2022-11-23T16:47:54.410Z,7.84
2022-11-23T16:50:23.631Z,7.84
2022-11-23T16:52:54.604Z,7.82
2022-11-23T16:55:28.405Z,7.91
2022-11-23T16:57:57.083Z,7.89
2022-11-23T17:00:28.445Z,7.92
2022-11-23T17:02:56.732Z,7.90
2022-11-23T17:05:25.132Z,7.89
2022-11-23T17:07:54.844Z,7.95
2022-11-23T17:10:24.634Z,7.92
2022-11-23T17:12:54.349Z,7.97
2022-11-23T17:15:24.444Z,7.95
2022-11-23T17:17:53.076Z,7.78
2022-11-23T17:20:21.725Z,7.68
2022-11-23T17:23:00.295Z,7.62
2022-11-23T17:25:30.475Z,7.59
2022-11-23T17:28:01.320Z,7.47
2022-11-23T17:30:30.095Z,7.51
2022-11-23T17:32:59.947Z,7.44
2022-11-23T17:35:36.869Z,7.62
2022-11-23T17:38:16.646Z,7.38
2022-11-23T17:40:49.491Z,7.29
2022-11-23T17:43:19.396Z,7.24
2022-11-23T17:45:47.830Z,7.18
2022-11-23T17:48:20.896Z,7.11
2022-11-23T17:50:58.846Z,7.08
2022-11-23T17:53:29.839Z,7.03
2022-11-23T17:56:00.876Z,6.98
2022-11-23T17:58:29.908Z,6.94
2022-11-23T18:00:58.615Z,6.87
2022-11-23T18:03:27.736Z,6.82
2022-11-23T18:05:58.536Z,6.80
2022-11-23T18:08:26.936Z,6.77
2022-11-23T18:10:59.064Z,6.74
2022-11-23T18:13:28.913Z,6.67
2022-11-23T18:16:23.840Z,6.62
2022-11-23T18:18:53.010Z,6.61
2022-11-23T18:21:21.704Z,6.60
2022-11-23T18:23:50.066Z,6.62
2022-11-23T18:26:21.658Z,6.58
2022-11-23T18:28:51.628Z,6.59
2022-11-23T18:31:21.462Z,6.58
2022-11-23T18:33:50.107Z,6.53
2022-11-23T18:36:18.908Z,6.51
2022-11-23T18:38:48.245Z,6.51
2022-11-23T18:41:18.703Z,6.50
2022-11-23T18:43:47.684Z,6.49
2022-11-23T18:46:19.504Z,6.51
2022-11-23T18:48:48.876Z,6.51
2022-11-23T18:51:18.997Z,6.51
2022-11-23T18:53:49.865Z,6.46
2022-11-23T18:56:19.256Z,6.44
2022-11-23T18:58:48.689Z,6.46
2022-11-23T19:01:22.584Z,6.50
2022-11-23T19:03:52.940Z,6.50
2022-11-23T19:06:23.681Z,6.54
2022-11-23T19:08:57.390Z,6.61
2022-11-23T19:11:29.852Z,6.59
2022-11-23T19:14:01.245Z,6.64
2022-11-23T19:16:32.599Z,6.76
2022-11-23T19:19:03.758Z,6.71
2022-11-23T19:21:37.049Z,6.75
2022-11-23T19:24:08.154Z,6.77
2022-11-23T19:26:38.036Z,6.76
2022-11-23T19:29:06.508Z,6.68
2022-11-23T19:31:36.834Z,6.64
2022-11-23T19:34:07.309Z,6.72
2022-11-23T19:36:37.140Z,6.71
2022-11-23T19:39:08.324Z,6.70
2022-11-23T19:41:38.775Z,6.72
2022-11-23T19:44:07.945Z,6.68
2022-11-23T19:46:38.457Z,6.69
2022-11-23T19:49:09.056Z,6.68
2022-11-23T19:51:40.050Z,6.75
2022-11-23T19:54:09.815Z,6.73
2022-11-23T19:56:40.023Z,6.74
2022-11-23T19:59:08.432Z,6.73
2022-11-23T20:01:38.756Z,6.71
2022-11-23T20:04:09.720Z,6.67
2022-11-23T20:06:42.137Z,6.71
2022-11-23T20:09:12.546Z,6.72
2022-11-23T20:11:43.090Z,6.77
2022-11-23T20:14:14.518Z,6.76
2022-11-23T20:16:44.440Z,6.75
2022-11-23T20:19:13.622Z,6.72
2022-11-23T20:21:43.980Z,6.71
2022-11-23T20:24:14.198Z,6.71
2022-11-23T20:26:43.489Z,6.70
2022-11-23T20:29:14.905Z,6.65
2022-11-23T20:31:44.860Z,6.56
2022-11-23T20:34:19.993Z,6.42
2022-11-23T20:36:50.802Z,6.32
2022-11-23T20:39:20.439Z,6.28
2022-11-23T20:41:50.711Z,6.14
2022-11-23T20:44:20.842Z,6.05
2022-11-23T20:47:06.115Z,5.96
2022-11-23T20:49:38.258Z,5.91
2022-11-23T20:52:10.594Z,5.82
2022-11-23T20:54:39.268Z,5.72
2022-11-23T20:57:07.862Z,5.67
2022-11-23T20:59:37.864Z,5.64
2022-11-23T21:02:10.301Z,5.57
2022-11-23T21:04:48.565Z,5.68
2022-11-23T21:07:17.871Z,5.62
2022-11-23T21:09:46.840Z,5.55
2022-11-23T21:12:33.001Z,5.54
2022-11-23T21:15:02.713Z,5.60
2022-11-23T21:17:32.458Z,5.78
2022-11-23T21:20:04.103Z,5.82
2022-11-23T21:22:32.657Z,5.96
2022-11-23T21:25:02.350Z,6.05
2022-11-23T21:27:33.273Z,6.10
2022-11-23T21:30:01.925Z,6.18
2022-11-23T21:32:38.119Z,6.13
2022-11-23T21:35:08.003Z,6.13
2022-11-23T21:37:36.451Z,6.04
2022-11-23T21:40:07.501Z,5.93
2022-11-23T21:42:38.125Z,5.89
2022-11-23T21:45:07.284Z,5.76
2022-11-23T21:47:38.660Z,5.61
2022-11-23T21:50:09.722Z,5.52
2022-11-23T21:52:39.485Z,5.45
2022-11-23T21:55:09.322Z,5.34
2022-11-23T21:57:37.584Z,5.31
2022-11-23T22:00:09.422Z,5.30
2022-11-23T22:03:02.144Z,5.26
2022-11-23T22:05:34.677Z,5.43
2022-11-23T22:10:54.435Z,5.73
2022-11-23T22:13:24.130Z,5.80
2022-11-23T22:15:55.058Z,5.95
2022-11-23T22:18:27.074Z,5.96
2022-11-23T22:20:56.775Z,5.92
2022-11-23T22:23:25.623Z,5.78
2022-11-23T22:25:54.097Z,5.66
2022-11-23T22:28:22.485Z,5.60
2022-11-23T22:30:54.708Z,5.57
2022-11-23T22:33:24.352Z,5.54
2022-11-23T22:35:54.213Z,5.55
2022-11-23T22:38:22.526Z,5.53
2022-11-23T22:40:51.277Z,5.51
2022-11-23T22:43:19.556Z,5.48
2022-11-23T22:45:48.338Z,5.45
2022-11-23T22:48:16.994Z,5.39
2022-11-23T22:50:58.230Z,5.45
2022-11-23T22:53:27.115Z,5.51
2022-11-23T22:55:58.157Z,5.56
2022-11-23T22:58:29.227Z,5.59
2022-11-23T23:00:58.541Z,5.61
2022-11-23T23:03:27.242Z,5.63
2022-11-23T23:06:00.242Z,5.66
2022-11-23T23:08:32.159Z,5.73
2022-11-23T23:11:05.933Z,5.80
2022-11-23T23:13:35.377Z,5.65
2022-11-23T23:16:07.629Z,5.55
2022-11-23T23:18:38.029Z,5.52
2022-11-23T23:21:14.615Z,5.45
2022-11-23T23:23:45.185Z,5.43
2022-11-23T23:26:15.995Z,5.45
2022-11-23T23:28:46.906Z,5.41
2022-11-23T23:31:19.542Z,5.34
2022-11-23T23:33:55.018Z,5.30
2022-11-23T23:36:25.993Z,5.28
2022-11-23T23:38:55.092Z,5.33
2022-11-23T23:41:23.713Z,5.31
2022-11-23T23:43:52.154Z,5.49
2022-11-23T23:46:20.872Z,5.32
2022-11-23T23:48:50.455Z,5.29
2022-11-23T23:51:21.862Z,5.36
2022-11-23T23:53:53.137Z,5.32
2022-11-23T23:56:23.564Z,5.31
2022-11-23T23:58:52.119Z,5.28
